Motte Rimrock Reserve, California Weather observations

Data are for 10 minute period ending at time listed.
 Day   Time   Solar   Ave.   Ave.  Ave.  Vector  Max.   Baro.   Total    
  of    of     Rad.   Air    Rel.  Wind   Wind   Wind  Press.  Precip.   
Year   Day            Temp.  Hum.  Speed  Dir.   Gust                    
2014   (PST)  Kw/m2    F      %     mph   deg.    mph    mb.     in.     
-------------------------------------------------------------------------
 262   18:00   0.01   73.9    56   12.4   300    15.9   943.8    0.00 
 262   18:10   0.00   73.2    57   12.7   297    16.4   943.9    0.00 
 262   18:20   0.00   72.8    58   12.0   294    14.5   944.0    0.00 
 262   18:30   0.00   72.2    60   11.5   306    14.5   944.1    0.00 
 262   18:40   0.00   71.8    60   11.4   305    15.1   944.1    0.00 
 262   18:50   0.00   71.3    61   12.0   304    14.6   944.2    0.00 
 262   19:00   0.00   70.8    62    9.8   296    16.0   944.3    0.00 
 262   19:10   0.00   70.6    63   12.0   306    15.7   944.3    0.00 
 262   19:20   0.00   70.0    64   10.7   304    13.5   944.5    0.00 
 262   19:30   0.00   69.7    65   10.9   306    13.7   944.6    0.00 
 262   19:40   0.00   69.4    66    9.8   306    13.0   944.7    0.00 
 262   19:50   0.00   69.2    66    8.7   311    12.6   944.9    0.00 
 262   20:00   0.00   69.2    66    1.5    13     5.2   945.0    0.00 
 262   20:10   0.00   68.9    67    1.5   356     4.5   945.1    0.00 
 262   20:20   0.00   68.6    67    4.1   322     6.3   945.1    0.00 
 262   20:30   0.00   68.1    68    4.9   306     6.4   945.1    0.00 
 262   20:40   0.00   67.7    69    5.5   308     7.7   945.2    0.00 
 262   20:50   0.00   67.4    70    3.6   297     6.1   945.3    0.00 
 262   21:00   0.00   67.0    71    5.0   310     7.5   945.4    0.00 
 262   21:10   0.00   66.6    72    6.0   307     8.6   945.5    0.00 
 262   21:20   0.00   66.3    73    6.1   302     8.6   945.5    0.00 
 262   21:30   0.00   66.1    73    6.6   296     7.7   945.6    0.00 
 262   21:40   0.00   65.9    74    5.5   301     7.5   945.6    0.00 
 262   21:50   0.00   65.7    75    5.5   301     7.2   945.7    0.00 
 262   22:00   0.00   65.6    75    5.4   302     7.0   945.7    0.00 
 262   22:10   0.00   65.5    75    5.6   302     7.2   945.6    0.00 
 262   22:20   0.00   65.6    75    6.9   299     9.5   945.6    0.00 
 262   22:30   0.00   65.3    76    6.9   306     9.6   945.7    0.00 
 262   22:40   0.00   65.0    76    7.0   311    10.2   945.7    0.00 
 262   22:50   0.00   65.0    77    8.3   297    11.5   945.7    0.00 
 262   23:00   0.00   65.0    77    5.8   310     8.8   945.7    0.00 
 262   23:10   0.00   64.9    77    2.3    31     4.7   945.8    0.00 
 262   23:20   0.00   64.9    77    1.1     0     2.8   945.9    0.00 
 262   23:30   0.00   64.8    78    1.4   298     2.7   945.9    0.00 
 262   23:40   0.00   64.4    78    0.3   327     1.1   945.9    0.00 
 262   23:50   0.00   64.4    78    1.1    24     2.3   946.0    0.00 
 263    0:00   0.00   64.6    78    1.9    59     3.0   946.1    0.00 
 263    0:10   0.00   64.4    78    2.0    40     2.7   945.9    0.00 
 263    0:20   0.00   64.4    78    2.7    14     3.8   945.9    0.00 
 263    0:30   0.00   64.2    78    2.5    15     3.7   945.9    0.00 
 263    0:40   0.00   64.0    79    1.5    46     1.8   945.9    0.00 
 263    0:50   0.00   63.9    80    0.9    21     1.8   945.8    0.00 
 263    1:00   0.00   63.5    81    0.3    10     1.7   945.8    0.00 
 263    1:10   0.00   62.7    83    1.7   164     2.6   945.8    0.00 
 263    1:20   0.00   62.3    84    1.3   168     2.6   945.8    0.00 
 263    1:30   0.00   62.1    84    0.3   248     1.0   945.8    0.00 
 263    1:40   0.00   62.1    85    0.2   248     0.9   945.7    0.00 
 263    1:50   0.00   62.0    85    0.2   216     1.5   945.5    0.00 
 263    2:00   0.00   61.9    86    1.8   166     2.3   945.5    0.00 
 263    2:10   0.00   61.8    86    2.2   159     2.6   945.4    0.00 
 263    2:20   0.00   61.8    86    3.2   133     4.2   945.3    0.00 
 263    2:30   0.00   61.5    86    4.0   139     5.0   945.4    0.00 
 263    2:40   0.00   61.1    87    2.4   160     3.4   945.4    0.00 
 263    2:50   0.00   61.1    87    2.6   135     3.3   945.3    0.00 
 263    3:00   0.00   60.7    88    3.9   136     6.1   945.3    0.00 
 263    3:10   0.00   60.2    89    4.3   144     6.2   945.4    0.00 
 263    3:20   0.00   60.1    89    3.4   176     4.4   945.4    0.00 
 263    3:30   0.00   60.0    90    3.0   162     3.5   945.4    0.00 
 263    3:40   0.00   59.9    90    3.5   166     4.0   945.4    0.00 
 263    3:50   0.00   59.8    91    3.9   191     4.7   945.4    0.00 
 263    4:00   0.00   59.9    91    3.0   192     3.5   945.3    0.00 
 263    4:10   0.00   60.2    90    3.0   201     3.4   945.4    0.00 
 263    4:20   0.00   60.4    90    2.5   189     2.9   945.4    0.00 
 263    4:30   0.00   60.5    90    2.5   207     2.9   945.5    0.00 
 263    4:40   0.00   60.4    89    2.1   191     2.6   945.5    0.00 
 263    4:50   0.00   60.4    89    2.2   180     2.6   945.5    0.00 
 263    5:00   0.00   60.4    90    2.0   186     2.5   945.6    0.00 
 263    5:10   0.00   60.4    90    1.9   176     2.5   945.7    0.00 
 263    5:20   0.00   60.4    90    1.5   168     2.2   945.9    0.00 
 263    5:30   0.00   60.3    91    1.3   143     2.1   945.9    0.00 
 263    5:40   0.00   59.9    91    2.2   127     3.1   946.0    0.00 
 263    5:50   0.00   59.4    91    3.5   132     4.2   946.1    0.00 
 263    6:00   0.02   59.3    92    2.5   163     3.7   946.2    0.00 
 263    6:10   0.05   59.5    92    2.9   188     3.5   946.2    0.00 
 263    6:20   0.07   59.5    92    3.0   244     3.9   946.3    0.00 
 263    6:30   0.10   60.3    91    3.0   271     3.9   946.5    0.00 
 263    6:40   0.13   61.1    88    3.1   287     4.2   946.6    0.00 
 263    6:50   0.16   61.7    87    3.0   318     4.1   946.8    0.00 
 263    7:00   0.19   62.0    87    4.5   314     6.5   946.8    0.00 
 263    7:10   0.15   61.9    88    5.1   317     7.2   946.9    0.00 
 263    7:20   0.09   61.7    89    4.3   312     7.5   947.0    0.00 
 263    7:30   0.16   61.9    89    3.6   310     5.8   947.1    0.00 
 263    7:40   0.13   62.6    86    4.5   314     6.9   947.1    0.00 
 263    7:50   0.22   62.9    86    3.8   325     5.6   947.1    0.00 
 263    8:00   0.23   63.5    84    2.8   329     4.5   947.2    0.00 
 263    8:10   0.26   64.4    82    2.2   311     4.7   947.3    0.00 
 263    8:20   0.29   64.9    80    2.7   312     5.0   947.4    0.00 
 263    8:30   0.32   65.9    78    2.0    19     5.1   947.4    0.00 
 263    8:40   0.40   66.7    76    1.4    35     3.9   947.5    0.00 
 263    8:50   0.56   68.0    73    1.8   302     4.7   947.4    0.00 
 263    9:00   0.58   67.8    73    3.5   269     5.8   947.4    0.00 
 263    9:10   0.61   68.7    71    1.8   236     4.7   947.5    0.00 
 263    9:20   0.64   70.7    66    2.7   109     6.4   947.5    0.00 
 263    9:30   0.66   71.0    66    3.2    86     6.4   947.4    0.00 
 263    9:40   0.68   71.6    64    3.0   107     5.6   947.3    0.00 
 263    9:50   0.71   71.6    64    1.7   339     3.7   947.3    0.00 
 263   10:00   0.73   72.8    61    2.5    12     7.6   947.2    0.00 
 263   10:10   0.74   72.6    62    3.7   130     6.4   947.1    0.00 
 263   10:20   0.76   74.5    58    2.7   185     6.1   947.1    0.00 
 263   10:30   0.78   75.3    56    2.3   141     5.7   946.9    0.00 
 263   10:40   0.80   75.3    56    3.6    57     8.4   946.8    0.00 
 263   10:50   0.80   75.8    55    4.1     9     7.9   946.7    0.00 
 263   11:00   0.81   76.7    53    3.3   346     8.0   946.7    0.00 
 263   11:10   0.82   78.1    51    3.5   340     9.0   946.5    0.00 
 263   11:20   0.78   76.2    55    5.0   302     9.9   946.4    0.00 
 263   11:30   0.81   76.4    54    7.8   338    12.1   946.4    0.00 
 263   11:40   0.83   76.9    54    8.0     1    14.2   946.4    0.00 
 263   11:50   0.83   77.3    53    7.5   328    14.8   946.3    0.00 
 263   12:00   0.81   77.0    53    6.4   316    11.9   946.2    0.00 
 263   12:10   0.81   77.4    52    8.1   326    12.3   946.0    0.00 
 263   12:20   0.80   77.5    52    6.7   315    12.4   945.9    0.00 
 263   12:30   0.79   78.5    51    9.3   309    14.5   945.7    0.00 
 263   12:40   0.80   78.5    51    8.4   302    13.2   945.6    0.00 
 263   12:50   0.79   78.6    50    9.0   314    14.2   945.5    0.00 
 263   13:00   0.78   78.8    50    9.9   320    15.2   945.4    0.00 
 263   13:10   0.76   78.9    50    9.7   315    17.0   945.3    0.00 
 263   13:20   0.74   79.0    49    7.7   320    14.7   945.2    0.00 
 263   13:30   0.70   79.8    48    8.5   321    13.6   945.1    0.00 
 263   13:40   0.72   79.6    48    7.9   300    13.2   944.9    0.00 
 263   13:50   0.70   80.7    46    4.8   286    11.0   944.8    0.00 
 263   14:00   0.69   80.5    46    5.2   285    13.9   944.7    0.00 
 263   14:10   0.67   80.5    47   12.5   310    19.4   944.6    0.00 
 263   14:20   0.64   79.6    49   15.2   299    21.8   944.6    0.00 
 263   14:30   0.60   78.6    51   15.4   312    20.6   944.5    0.00 
 263   14:40   0.55   78.2    51   15.2   315    19.2   944.6    0.00 
 263   14:50   0.55   78.5    51   13.6   309    20.0   944.7    0.00 
 263   15:00   0.52   78.6    51   12.7   295    17.2   944.7    0.00 
 263   15:10   0.49   79.0    50   11.9   302    17.0   944.7    0.00 
 263   15:20   0.46   79.1    50   11.9   298    16.0   944.7    0.00 
 263   15:30   0.42   78.8    51   12.1   302    16.4   944.6    0.00 
 263   15:40   0.39   79.0    50   10.6   301    15.2   944.6    0.00 
 263   15:50   0.36   78.7    51   11.7   304    15.2   944.7    0.00 
 263   16:00   0.32   78.3    52    9.6   314    13.2   944.8    0.00 
 263   16:10   0.28   78.1    52   12.1   298    15.9   944.7    0.00 
 263   16:20   0.25   78.1    52   11.0   310    14.0   944.7    0.00 
 263   16:30   0.21   77.8    53   11.3   311    14.9   944.7    0.00 
 263   16:40   0.18   77.4    53   11.4   310    16.4   944.8    0.00 
 263   16:50   0.15   77.0    54   11.2   310    13.8   944.8    0.00 
 263   17:00   0.11   76.5    55   10.1   317    12.9   944.8    0.00 
 263   17:10   0.09   75.8    56   13.5   308    16.4   944.9    0.00 
 263   17:20   0.07   75.1    58   13.2   307    17.3   945.1    0.00 
 263   17:30   0.04   73.8    60   14.4   306    18.3   945.3    0.00 
 263   17:40   0.02   73.0    62   14.6   310    17.7   945.4    0.00 
 263   17:50   0.01   72.5    62   12.7   315    15.6   945.4    0.00 

Return to Motte Rimrock Reserve graphs page.


Western Regional Climate Center,wrcc@dri.edu